Arma, Kansas
Current Conditions -  °F | °C
As of 11:35 AM on Wednesday 26 Nov 2014 (Local Time) from KPTS Reporting Station
Broken Clouds Broken Clouds  
Wind Chill:   Ceiling: 6000
Heat Index: 10°   Visibility: 10mi
Dew Point:   Wind: 16mph
Humidity: 51%   Direction: 330°NNW
Pressure: 30.04"   Gusts: 24mph
Location:  37.54°N, 94.7°W
Report Text: KPTS 261735Z AUTO 33014G21KT 10SM BKN060 BKN070 10/00 A3004 RMK AO2 T00970000
Loading
Personal Weather Stations






























Interactive Weather Map New forecast layout! Learn more

10-Day Weather Forecast

Advertisements
Track Severe Weather on mobile